Time;durP1;ratioP1;P1;durP2;ratioP2;P2;SDS_P1;SDS_P2;PMS_P1;PMS_P2;Temp;Humidity;BMP_temperature;BMP_pressure;BME280_temperature;BME280_humidity;BME280_pressure;Samples;Min_cycle;Max_cycle;Signal;HPM_P1;HPM_P2
2023/12/25 00:02:27;;;;;;;;;0.00;0.00;;;;;11.19;94.12;98766.22;5075332;28;8824;-57
2023/12/25 00:04:55;;;;;;;;;0.00;0.00;;;;;11.19;94.20;98760.91;5093947;28;8810;-55
2023/12/25 00:07:22;;;;;;;;;0.00;0.00;;;;;11.18;94.20;98745.91;5096081;28;8822;-58
2023/12/25 00:09:50;;;;;;;;;0.00;0.00;;;;;11.18;94.15;98759.22;5094964;28;8956;-58
2023/12/25 00:12:18;;;;;;;;;0.00;0.00;;;;;11.17;93.79;98755.75;5096487;28;8952;-56
2023/12/25 00:14:46;;;;;;;;;0.00;0.00;;;;;11.16;94.40;98751.38;5096134;28;8882;-56
2023/12/25 00:17:15;;;;;;;;;0.00;0.00;;;;;11.16;93.94;98756.72;5095210;28;8822;-57
2023/12/25 00:19:43;;;;;;;;;0.00;0.00;;;;;11.16;93.80;98750.56;5095697;28;8826;-57
2023/12/25 00:22:11;;;;;;;;;0.00;0.00;;;;;11.16;94.19;98747.91;5095660;28;8791;-54
2023/12/25 00:24:40;;;;;;;;;0.00;0.00;;;;;11.15;93.88;98749.72;5095525;28;8826;-55
2023/12/25 00:27:09;;;;;;;;;0.00;0.00;;;;;11.14;93.96;98747.22;5094840;28;8822;-54
2023/12/25 00:29:36;;;;;;;;;0.00;0.00;;;;;11.13;94.15;98754.38;5096264;28;8914;-55
2023/12/25 00:32:04;;;;;;;;;0.00;0.00;;;;;11.14;93.92;98741.91;5095820;28;8828;-54
2023/12/25 00:34:32;;;;;;;;;0.00;0.00;;;;;11.11;94.70;98748.38;5104487;28;9572;-55
2023/12/25 00:37:00;;;;;;;;;0.00;0.00;;;;;11.12;94.41;98755.38;5116183;28;8862;-55
2023/12/25 00:39:28;;;;;;;;;0.00;0.00;;;;;11.11;94.21;98755.50;5101945;28;8952;-54
2023/12/25 00:41:56;;;;;;;;;0.00;0.00;;;;;11.11;94.21;98752.84;5095774;28;8848;-54
2023/12/25 00:44:24;;;;;;;;;0.00;0.00;;;;;11.11;94.08;98753.69;5095853;28;8926;-56
2023/12/25 00:46:52;;;;;;;;;0.00;0.00;;;;;11.10;94.38;98757.34;5083715;28;8852;-54
2023/12/25 00:49:20;;;;;;;;;0.00;0.00;;;;;11.10;94.56;98746.69;5075187;28;8846;-54
2023/12/25 00:51:48;;;;;;;;;0.00;0.00;;;;;11.10;94.25;98749.38;5106239;28;8842;-56
2023/12/25 00:54:16;;;;;;;;;0.00;0.00;;;;;11.10;94.30;98752.03;5114942;28;9604;-56
2023/12/25 00:56:43;;;;;;;;;0.00;0.00;;;;;11.10;94.68;98765.34;5114447;28;8839;-54
2023/12/25 00:59:12;;;;;;;;;0.00;0.00;;;;;11.10;94.06;98751.19;5115159;28;8830;-55
2023/12/25 01:01:40;;;;;;;;;0.00;0.00;;;;;11.11;94.18;98759.03;5115870;28;8889;-54
2023/12/25 01:04:08;;;;;;;;;0.00;0.00;;;;;11.11;94.32;98744.84;5087042;28;8935;-56
2023/12/25 01:06:36;;;;;;;;;0.00;0.00;;;;;11.11;94.53;98759.03;5075709;28;9493;-55
2023/12/25 01:09:03;;;;;;;;;0.00;0.00;;;;;11.10;94.49;98736.03;5075212;28;8835;-55
2023/12/25 01:11:31;;;;;;;;;0.00;0.00;;;;;11.12;94.34;98734.06;5074983;28;8867;-56
2023/12/25 01:13:59;;;;;;;;;0.25;0.00;;;;;11.11;94.42;98732.38;5077971;28;8835;-55
2023/12/25 01:16:27;;;;;;;;;0.00;0.00;;;;;11.13;94.28;98735.72;5077803;28;8828;-54
2023/12/25 01:18:55;;;;;;;;;0.00;0.00;;;;;11.13;94.08;98741.03;5077647;28;9500;-54
2023/12/25 01:21:23;;;;;;;;;0.00;0.00;;;;;11.13;94.62;98735.72;5078718;28;8828;-56
2023/12/25 01:23:51;;;;;;;;;0.00;0.00;;;;;11.14;94.64;98758.69;5078156;28;8971;-56
2023/12/25 01:26:19;;;;;;;;;0.00;0.00;;;;;11.14;94.09;98753.38;5078559;28;8832;-55
2023/12/25 01:28:47;;;;;;;;;0.00;0.00;;;;;11.15;94.63;98768.38;5097951;28;8806;-54
2023/12/25 01:31:14;;;;;;;;;0.00;0.00;;;;;11.15;94.32;98776.34;5099114;28;8806;-55
2023/12/25 01:33:42;;;;;;;;;0.00;0.00;;;;;11.14;94.34;98764.03;5097892;28;8818;-57
2023/12/25 01:36:10;;;;;;;;;0.00;0.00;;;;;11.15;94.27;98771.03;5098274;28;8802;-57
2023/12/25 01:38:37;;;;;;;;;0.00;0.00;;;;;11.16;94.52;98777.22;5097995;28;8948;-57
2023/12/25 01:41:05;;;;;;;;;0.00;0.00;;;;;11.16;94.35;98778.03;5098732;28;8864;-57
2023/12/25 01:43:42;;;;;;;;;0.25;0.25;;;;;11.16;94.81;98775.34;5099162;28;8837;-57
2023/12/25 01:46:11;;;;;;;;;0.00;0.00;;;;;11.18;94.54;98788.53;5098152;28;8948;-56
2023/12/25 01:48:38;;;;;;;;;0.00;0.00;;;;;11.18;94.64;98791.22;5097999;28;8814;-57
2023/12/25 01:51:06;;;;;;;;;1.00;1.00;;;;;11.18;94.55;98797.38;5098450;28;8818;-57
2023/12/25 01:53:34;;;;;;;;;0.00;0.00;;;;;11.19;94.56;98783.06;5097580;28;8829;-55
2023/12/25 01:56:02;;;;;;;;;0.00;0.00;;;;;11.19;94.49;98796.38;5097754;28;8815;-54
2023/12/25 01:58:29;;;;;;;;;0.00;0.00;;;;;11.19;94.09;98799.06;5100832;28;8819;-57
2023/12/25 02:00:57;;;;;;;;;0.00;0.00;;;;;11.21;94.27;98789.06;5097997;28;8814;-54
2023/12/25 02:03:25;;;;;;;;;0.00;0.00;;;;;11.21;94.64;98796.25;5101529;28;8932;-55
2023/12/25 02:05:53;;;;;;;;;0.00;0.00;;;;;11.21;94.47;98799.72;5117872;28;8888;-55
2023/12/25 02:08:21;;;;;;;;;0.00;0.00;;;;;11.22;94.35;98798.72;5112479;28;8821;-56
2023/12/25 02:10:49;;;;;;;;;0.00;0.00;;;;;11.22;94.26;98796.06;5095054;28;9484;-56
2023/12/25 02:13:17;;;;;;;;;0.00;0.00;;;;;11.24;94.81;98811.91;5078059;28;8827;-54
2023/12/25 02:15:45;;;;;;;;;0.00;0.00;;;;;11.25;94.24;98800.25;5077711;28;8820;-55
2023/12/25 02:18:12;;;;;;;;;0.00;0.00;;;;;11.26;94.61;98802.78;5077323;28;8824;-54
2023/12/25 02:20:40;;;;;;;;;0.00;0.00;;;;;11.28;94.12;98798.13;5092408;28;8822;-55
2023/12/25 02:23:08;;;;;;;;;0.00;0.00;;;;;11.29;94.81;98791.78;5117624;28;8882;-54
2023/12/25 02:25:36;;;;;;;;;0.00;0.00;;;;;11.30;94.14;98789.97;5117813;28;8831;-54
2023/12/25 02:28:05;;;;;;;;;0.00;0.00;;;;;11.30;94.28;98789.97;5107683;28;8854;-56
2023/12/25 02:30:33;;;;;;;;;0.00;0.00;;;;;11.30;94.46;98792.66;5077242;28;8955;-54
2023/12/25 02:33:04;;;;;;;;;0.50;0.00;;;;;11.29;94.69;98796.31;5077020;28;8816;-54
2023/12/25 02:35:32;;;;;;;;;0.00;0.00;;;;;11.30;94.65;98789.97;5077186;28;8832;-56
2023/12/25 02:38:00;;;;;;;;;0.00;0.00;;;;;11.28;94.46;98806.13;5077063;28;8836;-54
2023/12/25 02:40:28;;;;;;;;;0.00;0.00;;;;;11.29;94.37;98814.97;5077194;28;8827;-55
2023/12/25 02:42:56;;;;;;;;;0.00;0.00;;;;;11.28;94.56;98798.13;5077213;28;8824;-56
2023/12/25 02:45:24;;;;;;;;;0.00;0.00;;;;;11.28;94.30;98806.13;5077832;28;8832;-54
2023/12/25 02:47:51;;;;;;;;;0.00;0.00;;;;;11.29;94.23;98815.78;5077278;28;9553;-54
2023/12/25 02:50:20;;;;;;;;;0.00;0.00;;;;;11.29;94.42;98815.78;5077101;28;8820;-55
2023/12/25 02:52:48;;;;;;;;;0.00;0.00;;;;;11.29;94.59;98804.31;5077133;28;8832;-55
2023/12/25 02:55:15;;;;;;;;;0.00;0.00;;;;;11.27;94.77;98831.09;5077018;28;8850;-55
2023/12/25 02:57:43;;;;;;;;;0.00;0.00;;;;;11.26;94.48;98816.09;5088632;28;8826;-57
2023/12/25 03:00:11;;;;;;;;;0.00;0.00;;;;;11.26;94.00;98826.75;5097289;28;8818;-54
2023/12/25 03:02:39;;;;;;;;;0.00;0.00;;;;;11.27;94.51;98817.78;5095839;28;8814;-56
2023/12/25 03:05:07;;;;;;;;;0.00;0.00;;;;;11.26;94.26;98821.44;5095939;28;8814;-55
2023/12/25 03:07:35;;;;;;;;;0.00;0.00;;;;;11.27;94.72;98820.44;5100141;28;8883;-55
2023/12/25 03:10:03;;;;;;;;;0.00;0.00;;;;;11.28;94.25;98806.13;5111300;28;8843;-54
2023/12/25 03:12:30;;;;;;;;;1.00;0.00;;;;;11.29;94.63;98804.31;5116374;28;8832;-57
2023/12/25 03:14:58;;;;;;;;;0.00;0.00;;;;;11.28;94.80;98810.59;5097108;28;9483;-54
2023/12/25 03:17:26;;;;;;;;;0.00;0.00;;;;;11.30;94.82;98828.13;5096846;28;8948;-54
2023/12/25 03:19:54;;;;;;;;;0.00;0.00;;;;;11.30;94.62;98825.44;5084729;28;8854;-56
2023/12/25 03:22:22;;;;;;;;;0.00;0.00;;;;;11.31;94.80;98828.97;5076400;28;8946;-56
2023/12/25 03:24:49;;;;;;;;;0.00;0.00;;;;;11.32;94.90;98825.31;5081655;28;9594;-55
2023/12/25 03:27:17;;;;;;;;;0.00;0.00;;;;;11.33;94.46;98826.97;5116901;28;8812;-54
2023/12/25 03:29:45;;;;;;;;;0.00;0.00;;;;;11.34;94.84;98808.19;5116965;28;8816;-56
2023/12/25 03:32:13;;;;;;;;;0.00;0.00;;;;;11.35;94.69;98815.16;5117020;28;8820;-54
2023/12/25 03:34:41;;;;;;;;;0.00;0.00;;;;;11.36;94.35;98811.50;5116781;28;9501;-55
2023/12/25 03:37:09;;;;;;;;;0.00;0.00;;;;;11.37;94.80;98823.03;5088239;28;8847;-58
2023/12/25 03:39:37;;;;;;;;;0.00;0.00;;;;;11.35;94.34;98820.50;5075994;28;8828;-54
2023/12/25 03:42:04;;;;;;;;;0.50;0.50;;;;;11.35;94.14;98838.31;5076311;28;8856;-54
2023/12/25 03:44:32;;;;;;;;;0.00;0.00;;;;;11.35;94.27;98825.84;5075997;28;8844;-54
2023/12/25 03:47:02;;;;;;;;;0.00;0.00;;;;;11.35;94.64;98819.66;5076275;28;8813;-55
2023/12/25 03:49:30;;;;;;;;;0.00;0.00;;;;;11.35;94.67;98828.50;5076029;28;8816;-54
2023/12/25 03:51:57;;;;;;;;;0.00;0.00;;;;;11.34;94.25;98813.50;5076262;28;8812;-55
2023/12/25 03:54:25;;;;;;;;;0.00;0.00;;;;;11.34;94.43;98810.00;5076586;28;8828;-56
2023/12/25 03:56:53;;;;;;;;;0.00;0.00;;;;;11.33;94.27;98817.16;5075952;28;8939;-54
2023/12/25 03:59:21;;;;;;;;;0.00;0.00;;;;;11.34;94.88;98821.50;5075956;28;8816;-54
2023/12/25 04:01:49;;;;;;;;;0.00;0.00;;;;;11.34;94.47;98816.16;5082614;28;8818;-54
2023/12/25 04:04:16;;;;;;;;;0.00;0.00;;;;;11.36;94.60;98821.34;5096287;28;8848;-56
2023/12/25 04:06:44;;;;;;;;;0.00;0.00;;;;;11.37;94.42;98818.50;5095353;28;8838;-54
2023/12/25 04:09:12;;;;;;;;;0.00;0.00;;;;;11.39;94.62;98813.84;5095708;28;8818;-56
2023/12/25 04:11:39;;;;;;;;;0.00;0.00;;;;;11.44;94.17;98824.91;5094922;28;8960;-55
2023/12/25 04:14:07;;;;;;;;;0.00;0.00;;;;;11.47;94.32;98835.28;5095181;28;8834;-54
2023/12/25 04:16:35;;;;;;;;;0.25;0.25;;;;;11.51;94.24;98841.13;5095930;28;8952;-55
2023/12/25 04:19:05;;;;;;;;;2.00;0.50;;;;;11.57;94.26;98852.00;5074811;28;8831;-55
2023/12/25 04:21:33;;;;;;;;;0.00;0.00;;;;;11.63;93.86;98851.44;5074645;28;8828;-55
2023/12/25 04:24:01;;;;;;;;;0.00;0.00;;;;;11.70;94.00;98855.16;5094571;28;8822;-56
2023/12/25 04:26:28;;;;;;;;;0.00;0.00;;;;;11.76;93.71;98861.69;5095015;28;8830;-56
2023/12/25 04:28:56;;;;;;;;;0.00;0.00;;;;;11.78;93.79;98855.19;5094142;28;8846;-54
2023/12/25 04:31:24;;;;;;;;;0.00;0.00;;;;;11.82;93.58;98861.88;5095302;28;8841;-56
2023/12/25 04:33:52;;;;;;;;;0.00;0.00;;;;;11.85;93.10;98871.41;5101003;28;8852;-55
2023/12/25 04:36:19;;;;;;;;;0.00;0.00;;;;;11.85;92.81;98856.25;5116244;28;9520;-56
2023/12/25 04:38:47;;;;;;;;;0.25;0.25;;;;;11.81;92.84;98868.22;5106322;28;8841;-56
2023/12/25 04:41:15;;;;;;;;;0.00;0.00;;;;;11.77;93.27;98877.53;5095262;28;8867;-56
2023/12/25 04:43:43;;;;;;;;;0.00;0.00;;;;;11.74;93.43;98867.16;5093657;28;8830;-57
2023/12/25 04:46:10;;;;;;;;;0.00;0.00;;;;;11.74;93.33;98869.00;5075488;28;8997;-57
2023/12/25 04:48:38;;;;;;;;;0.00;0.00;;;;;11.75;93.61;98876.84;5079124;28;8829;-56
2023/12/25 04:51:06;;;;;;;;;0.00;0.00;;;;;11.79;93.11;98861.34;5100773;28;8820;-54
2023/12/25 04:53:34;;;;;;;;;0.50;0.00;;;;;11.84;92.91;98873.22;5120209;28;9595;-55
2023/12/25 04:56:03;;;;;;;;;0.00;0.00;;;;;11.88;92.99;98866.59;5119959;28;9535;-54
2023/12/25 04:58:30;;;;;;;;;0.25;0.00;;;;;11.92;92.82;98859.97;5119552;28;8835;-54
2023/12/25 05:00:58;;;;;;;;;0.00;0.00;;;;;11.95;92.48;98848.97;5111304;28;8828;-54
2023/12/25 05:03:26;;;;;;;;;0.00;0.00;;;;;11.90;92.70;98831.78;5079073;28;8951;-54
2023/12/25 05:05:54;;;;;;;;;0.00;0.00;;;;;11.80;92.31;98853.22;5079262;28;8863;-54
2023/12/25 05:08:23;;;;;;;;;0.00;0.00;;;;;11.70;92.50;98854.28;5078795;28;8828;-54
2023/12/25 05:10:51;;;;;;;;;1.00;1.00;;;;;11.63;93.69;98850.56;5078305;28;8824;-56
2023/12/25 05:13:18;;;;;;;;;0.75;0.00;;;;;11.58;93.14;98853.72;5078768;28;8867;-56
2023/12/25 05:15:46;;;;;;;;;0.00;0.00;;;;;11.55;93.08;98862.00;5079117;28;8831;-55
2023/12/25 05:18:14;;;;;;;;;0.00;0.00;;;;;11.53;93.66;98861.28;5079224;28;8917;-56
2023/12/25 05:20:41;;;;;;;;;0.00;0.00;;;;;11.54;93.47;98854.97;5078471;28;8832;-55
2023/12/25 05:23:10;;;;;;;;;0.00;0.00;;;;;11.54;93.50;98841.63;5078570;28;8820;-55
2023/12/25 05:25:37;;;;;;;;;0.00;0.00;;;;;11.54;93.57;98838.16;5078643;28;8901;-57
2023/12/25 05:28:05;;;;;;;;;0.00;0.00;;;;;11.55;93.68;98837.16;5093151;28;8802;-56
2023/12/25 05:30:33;;;;;;;;;0.00;0.00;;;;;11.55;94.23;98839.81;5098955;28;8871;-56
2023/12/25 05:33:01;;;;;;;;;0.00;0.00;;;;;11.56;93.33;98839.66;5097951;28;8960;-56
2023/12/25 05:35:29;;;;;;;;;0.00;0.00;;;;;11.59;93.60;98841.22;5097778;28;8821;-55
2023/12/25 05:37:56;;;;;;;;;0.00;0.00;;;;;11.60;94.01;98830.38;5098596;28;8861;-57
2023/12/25 05:40:24;;;;;;;;;0.00;0.00;;;;;11.63;93.32;98846.09;5099807;28;8810;-56
2023/12/25 05:42:52;;;;;;;;;0.00;0.00;;;;;11.66;93.55;98819.09;5098486;28;8833;-57
2023/12/25 05:45:21;;;;;;;;;0.00;0.00;;;;;11.68;93.07;98835.78;5097764;28;8814;-56
2023/12/25 05:47:49;;;;;;;;;0.00;0.00;;;;;11.70;93.02;98844.47;5098042;28;8930;-57
2023/12/25 05:50:18;;;;;;;;;0.00;0.00;;;;;11.73;93.02;98837.97;5098042;28;8887;-57
2023/12/25 05:52:45;;;;;;;;;0.00;0.00;;;;;11.74;93.41;98839.66;5097169;28;8911;-55
2023/12/25 05:55:13;;;;;;;;;1.00;0.00;;;;;11.73;93.02;98832.63;5098146;28;8935;-57
2023/12/25 05:57:41;;;;;;;;;0.00;0.00;;;;;11.66;93.07;98840.44;5098340;28;8825;-55
2023/12/25 06:00:09;;;;;;;;;0.00;0.00;;;;;11.60;93.14;98846.38;5103594;28;8799;-57
2023/12/25 06:02:37;;;;;;;;;0.00;0.00;;;;;11.56;93.15;98854.81;5118536;28;8938;-57
2023/12/25 06:05:05;;;;;;;;;0.00;0.00;;;;;11.54;93.34;98851.47;5108446;28;8921;-54
2023/12/25 06:07:33;;;;;;;;;0.00;0.00;;;;;11.52;93.58;98854.28;5098399;28;8893;-57
2023/12/25 06:10:01;;;;;;;;;0.00;0.00;;;;;11.51;93.35;98847.28;5085183;28;8954;-54
2023/12/25 06:12:28;;;;;;;;;1.00;0.00;;;;;11.51;93.27;98828.63;5077825;28;8828;-54
2023/12/25 06:14:56;;;;;;;;;0.00;0.00;;;;;11.51;93.25;98847.28;5078007;28;8867;-55
2023/12/25 06:17:24;;;;;;;;;0.00;0.00;;;;;11.52;93.84;98850.81;5100451;28;8808;-55
2023/12/25 06:19:50;;;;;;;;;0.00;0.00;;;;;11.52;94.31;98840.13;5118394;28;8866;-57
2023/12/25 06:22:18;;;;;;;;;0.00;0.00;;;;;11.50;92.98;98834.94;5118412;28;8816;-55
2023/12/25 06:24:46;;;;;;;;;0.00;0.00;;;;;11.49;93.70;98840.44;5118260;28;8826;-54
2023/12/25 06:27:14;;;;;;;;;0.00;0.00;;;;;11.46;93.23;98838.09;5087790;28;8824;-55
2023/12/25 06:29:42;;;;;;;;;0.00;0.00;;;;;11.45;93.83;98850.56;5077323;28;8832;-55
2023/12/25 06:32:10;;;;;;;;;0.00;0.00;;;;;11.42;93.99;98829.56;5077520;28;8906;-56
2023/12/25 06:34:38;;;;;;;;;0.00;0.00;;;;;11.41;94.16;98835.03;5077359;28;8950;-56
2023/12/25 06:37:06;;;;;;;;;0.00;0.00;;;;;11.40;93.89;98852.03;5077506;28;8832;-55
2023/12/25 06:39:34;;;;;;;;;0.00;0.00;;;;;11.39;93.49;98847.69;5076975;28;8854;-54
2023/12/25 06:42:01;;;;;;;;;0.00;0.00;;;;;11.38;93.91;98867.34;5077630;28;9253;-56
2023/12/25 06:44:29;;;;;;;;;0.00;0.00;;;;;11.36;93.54;98875.47;5078193;28;8820;-55
2023/12/25 06:46:57;;;;;;;;;0.00;0.00;;;;;11.36;93.57;98851.50;5077008;28;8820;-57
2023/12/25 06:49:24;;;;;;;;;0.00;0.00;;;;;11.35;93.77;98847.16;5077077;28;8950;-55
2023/12/25 06:51:53;;;;;;;;;0.00;0.00;;;;;11.34;93.76;98861.47;5077009;28;8812;-55
2023/12/25 06:54:20;;;;;;;;;0.00;0.00;;;;;11.34;93.83;98860.63;5091687;28;8956;-54
2023/12/25 06:56:48;;;;;;;;;0.00;0.00;;;;;11.33;94.04;98859.81;5097638;28;8948;-56
2023/12/25 06:59:17;;;;;;;;;0.00;0.00;;;;;11.34;93.80;98868.63;5097083;28;8826;-54
2023/12/25 07:01:44;;;;;;;;;0.00;0.00;;;;;11.33;94.33;98870.47;5096347;28;8818;-55
2023/12/25 07:04:12;;;;;;;;;0.00;0.00;;;;;11.32;94.19;98867.94;5096849;28;8845;-55
2023/12/25 07:06:40;;;;;;;;;0.00;0.00;;;;;11.31;93.92;98868.94;5097153;28;8810;-57
2023/12/25 07:09:09;;;;;;;;;0.00;0.00;;;;;11.29;94.06;98863.75;5096962;28;8810;-55
2023/12/25 07:11:37;;;;;;;;;0.00;0.00;;;;;11.29;94.17;98853.09;5096819;28;8881;-55
2023/12/25 07:14:05;;;;;;;;;0.00;0.00;;;;;11.29;94.14;98863.75;5096917;28;8916;-57
2023/12/25 07:16:33;;;;;;;;;0.00;0.00;;;;;11.27;94.30;98863.06;5095998;28;8822;-57
2023/12/25 07:19:00;;;;;;;;;0.00;0.00;;;;;11.27;94.23;98860.41;5096456;28;8853;-56
2023/12/25 07:21:28;;;;;;;;;0.00;0.00;;;;;11.27;93.98;98863.06;5096361;28;8960;-55
2023/12/25 07:23:58;;;;;;;;;0.00;0.00;;;;;11.28;93.98;98863.91;5096777;28;8798;-54
2023/12/25 07:26:26;;;;;;;;;0.00;0.00;;;;;11.26;93.76;98861.41;5096429;28;8992;-56
2023/12/25 07:28:53;;;;;;;;;0.00;0.00;;;;;11.27;94.02;98864.88;5096524;28;8821;-56
2023/12/25 07:31:22;;;;;;;;;0.00;0.00;;;;;11.28;94.04;98855.91;5096611;28;8825;-55
2023/12/25 07:33:51;;;;;;;;;0.00;0.00;;;;;11.27;94.46;98868.41;5095690;28;9505;-55
2023/12/25 07:36:19;;;;;;;;;0.00;0.00;;;;;11.28;94.07;98869.22;5096799;28;8806;-56
2023/12/25 07:38:47;;;;;;;;;0.00;0.00;;;;;11.28;93.96;98878.06;5096485;28;8838;-55
2023/12/25 07:41:15;;;;;;;;;0.00;0.00;;;;;11.29;94.42;98873.59;5095679;28;8842;-57
2023/12/25 07:43:42;;;;;;;;;0.00;0.00;;;;;11.30;93.98;98880.59;5096179;28;8832;-54
2023/12/25 07:46:10;;;;;;;;;0.00;0.00;;;;;11.31;94.01;98872.44;5096257;28;8952;-54
2023/12/25 07:48:37;;;;;;;;;0.00;0.00;;;;;11.32;94.01;98882.13;5096171;28;8845;-55
2023/12/25 07:51:05;;;;;;;;;0.00;0.00;;;;;11.33;93.89;98878.47;5091159;28;8935;-55
2023/12/25 07:53:33;;;;;;;;;0.00;0.00;;;;;11.34;94.00;98879.28;5092279;28;8796;-54
2023/12/25 07:56:02;;;;;;;;;0.00;0.00;;;;;11.33;94.16;98882.94;5116512;28;8835;-54
2023/12/25 07:58:29;;;;;;;;;0.00;0.00;;;;;11.30;94.06;98876.09;5116489;28;8831;-54
2023/12/25 08:00:58;;;;;;;;;0.25;0.25;;;;;11.30;93.74;98892.06;5116014;28;8836;-56
2023/12/25 08:03:26;;;;;;;;;0.00;0.00;;;;;11.30;94.19;98881.41;5113466;28;8808;-55
2023/12/25 08:05:53;;;;;;;;;0.00;0.00;;;;;11.31;94.41;98900.94;5095490;28;8929;-54
2023/12/25 08:08:21;;;;;;;;;0.00;0.00;;;;;11.31;94.68;98888.41;5095155;28;8822;-55
2023/12/25 08:10:49;;;;;;;;;0.00;0.00;;;;;11.31;93.84;98888.41;5097001;28;8924;-54
2023/12/25 08:13:17;;;;;;;;;0.00;0.00;;;;;11.33;93.91;98896.28;5096299;28;8829;-54
2023/12/25 08:15:44;;;;;;;;;0.00;0.00;;;;;11.33;93.91;98890.94;5096362;28;8809;-54
2023/12/25 08:18:13;;;;;;;;;0.00;0.00;;;;;11.34;94.45;98898.78;5095606;28;8837;-54
2023/12/25 08:20:41;;;;;;;;;0.00;0.00;;;;;11.35;94.32;98900.47;5095052;28;8822;-54
2023/12/25 08:23:08;;;;;;;;;0.50;0.50;;;;;11.36;93.80;98902.13;5098248;28;8813;-54
2023/12/25 08:25:37;;;;;;;;;0.00;0.00;;;;;11.38;94.06;98902.00;5099561;28;9455;-54
2023/12/25 08:28:04;;;;;;;;;0.00;0.00;;;;;11.38;93.71;98910.81;5098817;28;8838;-56
2023/12/25 08:30:32;;;;;;;;;0.00;0.00;;;;;11.39;94.28;98911.66;5099528;28;8803;-54
2023/12/25 08:33:00;;;;;;;;;0.25;0.25;;;;;11.39;94.19;98907.16;5099367;28;8984;-55
2023/12/25 08:35:28;;;;;;;;;0.00;0.00;;;;;11.39;94.10;98920.47;5099647;28;8844;-56
2023/12/25 08:37:56;;;;;;;;;0.00;0.00;;;;;11.40;93.94;98918.66;5098635;28;8834;-55
2023/12/25 08:40:25;;;;;;;;;0.00;0.00;;;;;11.41;94.01;98925.66;5107137;28;9519;-56
2023/12/25 08:42:53;;;;;;;;;0.00;0.00;;;;;11.41;93.66;98931.84;5095907;28;8820;-54
2023/12/25 08:45:21;;;;;;;;;0.00;0.00;;;;;11.41;94.11;98937.19;5102171;28;8822;-54
2023/12/25 08:47:51;;;;;;;;;0.00;0.00;;;;;11.40;94.38;98940.84;5120060;28;8908;-54
2023/12/25 08:50:20;;;;;;;;;0.00;0.00;;;;;11.40;93.49;98950.66;5120060;28;8843;-54
2023/12/25 08:52:48;;;;;;;;;0.00;0.00;;;;;11.40;93.85;98955.97;5119670;28;8834;-55
2023/12/25 08:55:16;;;;;;;;;0.50;0.00;;;;;11.40;94.29;98954.16;5118713;28;8819;-56
2023/12/25 08:57:44;;;;;;;;;0.00;0.00;;;;;11.40;93.81;98942.66;5105827;28;8810;-55
2023/12/25 09:00:11;;;;;;;;;0.00;0.00;;;;;11.40;93.88;98964.81;5083925;28;8856;-54
2023/12/25 09:02:40;;;;;;;;;0.00;0.00;;;;;11.40;93.85;98962.16;5078816;28;8843;-57
2023/12/25 09:05:07;;;;;;;;;0.00;0.00;;;;;11.39;93.72;98964.97;5077636;28;8827;-54
2023/12/25 09:07:35;;;;;;;;;0.00;0.00;;;;;11.39;93.92;98976.44;5078481;28;8840;-54
2023/12/25 09:10:04;;;;;;;;;0.00;0.00;;;;;11.38;93.97;98984.63;5078768;28;9539;-56
2023/12/25 09:12:32;;;;;;;;;0.00;0.00;;;;;11.38;94.22;98985.44;5078848;28;8844;-56
2023/12/25 09:15:01;;;;;;;;;0.00;0.00;;;;;11.39;93.93;98987.13;5078410;28;8846;-54
2023/12/25 09:17:29;;;;;;;;;0.00;0.00;;;;;11.39;93.62;98987.13;5077958;28;8828;-56
2023/12/25 09:19:57;;;;;;;;;0.00;0.00;;;;;11.40;94.18;98998.63;5081995;28;8845;-55
2023/12/25 09:22:27;;;;;;;;;1.00;1.00;;;;;11.40;94.04;99002.16;5097803;28;8838;-56
2023/12/25 09:24:55;;;;;;;;;1.50;1.00;;;;;11.41;93.63;99002.97;5097676;28;8818;-56
2023/12/25 09:27:23;;;;;;;;;3.50;3.50;;;;;11.41;93.76;99005.63;5098124;28;8830;-54
2023/12/25 09:29:50;;;;;;;;;0.00;0.00;;;;;11.36;93.59;99016.75;5097671;28;8838;-56
2023/12/25 09:32:18;;;;;;;;;0.00;0.00;;;;;11.28;94.11;99016.66;5097810;28;9505;-57
2023/12/25 09:34:46;;;;;;;;;0.75;0.75;;;;;11.21;93.68;99020.91;5095447;28;9480;-57
2023/12/25 09:37:23;;;;;;;;;0.00;0.00;;;;;11.16;93.70;99022.34;5097793;28;8825;-57
2023/12/25 09:39:51;;;;;;;;;0.00;0.00;;;;;11.10;94.28;99018.44;5096898;28;8846;-59
2023/12/25 09:42:19;;;;;;;;;0.00;0.00;;;;;11.06;94.11;99019.72;5096799;28;8842;-58
2023/12/25 09:44:47;;;;;;;;;0.00;0.00;;;;;11.02;94.08;99034.34;5100072;28;9432;-58
2023/12/25 09:47:15;;;;;;;;;2.00;1.00;;;;;10.98;94.50;99034.75;5096750;28;8821;-58
2023/12/25 09:49:43;;;;;;;;;0.00;0.00;;;;;10.95;94.19;99035.91;5095888;28;8810;-56
2023/12/25 09:52:10;;;;;;;;;1.00;1.00;;;;;10.93;94.66;99043.19;5096361;28;8947;-56
2023/12/25 09:54:38;;;;;;;;;0.00;0.00;;;;;10.90;94.71;99051.47;5097218;28;8845;-56
2023/12/25 09:57:06;;;;;;;;;0.00;0.00;;;;;10.88;94.39;99044.59;5097494;28;8873;-56
2023/12/25 09:59:33;;;;;;;;;0.00;0.00;;;;;10.84;94.13;99044.06;5096374;28;8814;-56
2023/12/25 10:02:01;;;;;;;;;0.00;0.00;;;;;10.79;94.81;99046.34;5097012;28;8852;-57
2023/12/25 10:04:30;;;;;;;;;0.00;0.00;;;;;10.74;94.64;99059.25;5097099;28;8956;-56
2023/12/25 10:06:58;;;;;;;;;0.00;0.00;;;;;10.68;94.84;99051.81;5096382;28;8814;-56
2023/12/25 10:09:26;;;;;;;;;0.00;0.00;;;;;10.64;94.86;99042.47;5096223;28;8871;-57
2023/12/25 10:11:54;;;;;;;;;0.00;0.00;;;;;10.59;95.00;99042.06;5100450;28;8830;-57
2023/12/25 10:14:21;;;;;;;;;0.00;0.00;;;;;10.55;95.17;99047.81;5026891;28;1414257;-56
2023/12/25 10:16:49;;;;;;;;;0.00;0.00;;;;;10.52;94.65;99059.56;5090887;28;8831;-53
2023/12/25 10:19:18;;;;;;;;;0.00;0.00;;;;;10.49;94.57;99054.56;5118001;28;8816;-55
2023/12/25 10:21:46;;;;;;;;;0.00;0.00;;;;;10.46;95.11;99062.81;5117840;28;8832;-57
2023/12/25 10:24:14;;;;;;;;;0.00;0.00;;;;;10.45;94.96;99058.47;5103559;28;8974;-54
2023/12/25 10:26:42;;;;;;;;;0.00;0.00;;;;;10.43;94.77;99048.94;5077186;28;8836;-56
2023/12/25 10:29:10;;;;;;;;;0.00;0.00;;;;;10.41;94.65;99057.06;5093802;28;8877;-57
2023/12/25 10:31:39;;;;;;;;;0.00;0.00;;;;;10.37;94.80;99050.34;5117812;28;8831;-55
2023/12/25 10:34:06;;;;;;;;;0.00;0.00;;;;;10.36;95.27;99054.00;5117583;28;8828;-55
2023/12/25 10:36:34;;;;;;;;;1.00;1.00;;;;;10.36;95.55;99051.34;5117527;28;8843;-54
2023/12/25 10:39:02;;;;;;;;;0.00;0.00;;;;;10.36;95.00;99048.69;5117181;28;8929;-57
2023/12/25 10:41:33;;;;;;;;;0.00;0.00;;;;;10.37;95.48;99034.41;5098231;28;8982;-57
2023/12/25 10:44:02;;;;;;;;;2.25;0.00;;;;;10.39;95.16;99037.75;5076847;28;8867;-57
2023/12/25 10:46:30;;;;;;;;;0.00;0.00;;;;;10.41;95.43;99032.28;5076577;28;8898;-55
2023/12/25 10:48:58;;;;;;;;;0.00;0.00;;;;;10.44;95.38;99027.50;5077096;28;8816;-57
2023/12/25 10:51:26;;;;;;;;;0.00;0.00;;;;;10.45;94.75;99029.19;5077076;28;9486;-55
2023/12/25 10:53:55;;;;;;;;;0.00;0.00;;;;;10.46;95.40;99025.53;5076398;28;8858;-54
2023/12/25 10:56:24;;;;;;;;;0.00;0.00;;;;;10.48;94.83;99036.88;5077026;28;8936;-55
2023/12/25 10:58:52;;;;;;;;;0.00;0.00;;;;;10.50;94.84;99034.06;5077616;28;8978;-55
2023/12/25 11:01:20;;;;;;;;;0.00;0.00;;;;;10.50;95.09;99021.63;5076187;28;8864;-56
2023/12/25 11:03:48;;;;;;;;;0.00;0.00;;;;;10.52;95.09;99016.13;5076348;28;8943;-55
2023/12/25 11:06:16;;;;;;;;;0.00;0.00;;;;;10.52;94.81;99024.97;5089490;28;9487;-57
2023/12/25 11:08:44;;;;;;;;;0.00;0.00;;;;;10.52;95.03;99027.63;5096687;28;8910;-54
2023/12/25 11:11:12;;;;;;;;;0.00;0.00;;;;;10.52;94.76;99032.09;5096506;28;8862;-54
2023/12/25 11:13:40;;;;;;;;;0.00;0.00;;;;;10.51;95.17;99036.59;5095160;28;8826;-55
2023/12/25 11:16:09;;;;;;;;;0.00;0.00;;;;;10.51;94.53;99041.94;5096473;28;8906;-56
2023/12/25 11:18:37;;;;;;;;;0.00;0.00;;;;;10.50;95.30;99031.41;5096565;28;8906;-56
2023/12/25 11:21:05;;;;;;;;;2.50;0.75;;;;;10.47;94.33;99035.19;5096557;28;8841;-55
2023/12/25 11:23:33;;;;;;;;;0.00;0.00;;;;;10.49;94.63;99032.41;5095424;28;8898;-54
2023/12/25 11:26:03;;;;;;;;;1.00;0.00;;;;;10.48;94.67;99028.06;5095782;28;8830;-54
2023/12/25 11:28:31;;;;;;;;;0.00;0.00;;;;;10.47;95.22;99029.06;5096025;28;8960;-57
2023/12/25 11:31:00;;;;;;;;;0.00;0.00;;;;;10.47;94.80;99018.41;5095851;28;8876;-53
2023/12/25 11:33:27;;;;;;;;;0.00;0.00;;;;;10.45;94.85;99023.88;5095772;28;8829;-57
2023/12/25 11:35:55;;;;;;;;;0.00;0.00;;;;;10.46;95.16;99014.91;5095316;28;8834;-56
2023/12/25 11:38:25;;;;;;;;;0.00;0.00;;;;;10.49;95.11;99009.31;5095775;28;8806;-55
2023/12/25 11:40:53;;;;;;;;;0.00;0.00;;;;;10.50;94.43;99018.09;5097080;28;8853;-56
2023/12/25 11:43:21;;;;;;;;;0.00;0.00;;;;;10.50;94.90;99013.63;5094569;28;8861;-56
2023/12/25 11:45:50;;;;;;;;;0.00;0.00;;;;;10.51;94.58;99004.66;5095482;28;8956;-55